sensor_id;sensor_type;location;lat;lon;timestamp;pressure;altitude;pressure_sealevel;temperature;humidity
28008;BME280;15333;50.010;20.020;2023-10-13T00:00:35;98899.72;;;13.68;94.35
28008;BME280;15333;50.010;20.020;2023-10-13T00:04:01;98898.56;;;13.61;94.54
28008;BME280;15333;50.010;20.020;2023-10-13T00:07:05;98901.97;;;13.63;96.47
28008;BME280;15333;50.010;20.020;2023-10-13T00:10:10;98898.28;;;13.64;96.59
28008;BME280;15333;50.010;20.020;2023-10-13T00:13:11;98899.97;;;13.65;97.45
28008;BME280;15333;50.010;20.020;2023-10-13T00:16:12;98903.41;;;13.67;97.57
28008;BME280;15333;50.010;20.020;2023-10-13T00:19:18;98893.75;;;13.65;97.54
28008;BME280;15333;50.010;20.020;2023-10-13T00:22:19;98903.16;;;13.70;97.27
28008;BME280;15333;50.010;20.020;2023-10-13T00:25:20;98902.97;;;13.62;97.90
28008;BME280;15333;50.010;20.020;2023-10-13T00:28:27;98898.81;;;13.58;97.71
28008;BME280;15333;50.010;20.020;2023-10-13T00:31:39;98900.81;;;13.56;98.33
28008;BME280;15333;50.010;20.020;2023-10-13T00:34:43;98900.19;;;13.53;99.20
28008;BME280;15333;50.010;20.020;2023-10-13T00:37:44;98902.03;;;13.52;98.75
28008;BME280;15333;50.010;20.020;2023-10-13T00:40:46;98894.94;;;13.51;98.89
28008;BME280;15333;50.010;20.020;2023-10-13T00:43:52;98898.50;;;13.52;98.86
28008;BME280;15333;50.010;20.020;2023-10-13T00:47:05;98895.09;;;13.50;98.98
28008;BME280;15333;50.010;20.020;2023-10-13T00:50:09;98893.97;;;13.52;98.88
28008;BME280;15333;50.010;20.020;2023-10-13T00:53:16;98895.44;;;13.56;99.14
28008;BME280;15333;50.010;20.020;2023-10-13T00:56:17;98891.69;;;13.48;98.97
28008;BME280;15333;50.010;20.020;2023-10-13T00:59:21;98898.13;;;13.36;98.75
28008;BME280;15333;50.010;20.020;2023-10-13T01:02:25;98894.16;;;13.19;99.10
28008;BME280;15333;50.010;20.020;2023-10-13T01:05:46;98881.97;;;13.04;98.98
28008;BME280;15333;50.010;20.020;2023-10-13T01:09:04;98897.31;;;12.92;99.82
28008;BME280;15333;50.010;20.020;2023-10-13T01:12:17;98894.16;;;13.08;100.00
28008;BME280;15333;50.010;20.020;2023-10-13T01:15:18;98887.69;;;13.10;100.00
28008;BME280;15333;50.010;20.020;2023-10-13T01:18:22;98883.16;;;13.11;100.00
28008;BME280;15333;50.010;20.020;2023-10-13T01:21:23;98871.97;;;13.06;100.00
28008;BME280;15333;50.010;20.020;2023-10-13T01:24:29;98881.03;;;12.93;100.00
28008;BME280;15333;50.010;20.020;2023-10-13T01:27:36;98872.91;;;12.84;100.00
28008;BME280;15333;50.010;20.020;2023-10-13T01:30:39;98875.50;;;12.74;100.00
28008;BME280;15333;50.010;20.020;2023-10-13T01:33:39;98868.06;;;12.67;100.00
28008;BME280;15333;50.010;20.020;2023-10-13T01:36:41;98869.97;;;12.55;100.00
28008;BME280;15333;50.010;20.020;2023-10-13T01:39:42;98872.41;;;12.47;100.00
28008;BME280;15333;50.010;20.020;2023-10-13T01:42:43;98875.34;;;12.44;100.00
28008;BME280;15333;50.010;20.020;2023-10-13T01:45:46;98878.75;;;12.57;100.00
28008;BME280;15333;50.010;20.020;2023-10-13T01:48:50;98873.63;;;12.54;100.00
28008;BME280;15333;50.010;20.020;2023-10-13T01:51:54;98878.00;;;12.55;100.00
28008;BME280;15333;50.010;20.020;2023-10-13T01:54:55;98872.38;;;12.58;100.00
28008;BME280;15333;50.010;20.020;2023-10-13T01:57:58;98875.06;;;12.58;100.00
28008;BME280;15333;50.010;20.020;2023-10-13T02:00:59;98874.94;;;12.60;100.00
28008;BME280;15333;50.010;20.020;2023-10-13T02:04:01;98866.03;;;12.59;100.00
28008;BME280;15333;50.010;20.020;2023-10-13T02:07:05;98859.44;;;12.63;100.00
28008;BME280;15333;50.010;20.020;2023-10-13T02:10:10;98860.16;;;12.65;100.00
28008;BME280;15333;50.010;20.020;2023-10-13T02:13:14;98857.13;;;12.59;100.00
28008;BME280;15333;50.010;20.020;2023-10-13T02:16:18;98854.81;;;12.54;100.00
28008;BME280;15333;50.010;20.020;2023-10-13T02:19:22;98848.47;;;12.55;100.00
28008;BME280;15333;50.010;20.020;2023-10-13T02:22:27;98851.28;;;12.53;100.00
28008;BME280;15333;50.010;20.020;2023-10-13T02:25:30;98862.25;;;12.50;100.00
28008;BME280;15333;50.010;20.020;2023-10-13T02:28:43;98850.47;;;12.42;100.00
28008;BME280;15333;50.010;20.020;2023-10-13T02:31:45;98852.88;;;12.45;100.00
28008;BME280;15333;50.010;20.020;2023-10-13T02:34:55;98853.09;;;12.64;100.00
28008;BME280;15333;50.010;20.020;2023-10-13T02:38:09;98846.47;;;12.68;100.00
28008;BME280;15333;50.010;20.020;2023-10-13T02:41:13;98848.66;;;12.74;100.00
28008;BME280;15333;50.010;20.020;2023-10-13T02:44:25;98845.75;;;12.66;100.00
28008;BME280;15333;50.010;20.020;2023-10-13T02:47:32;98846.53;;;12.57;100.00
28008;BME280;15333;50.010;20.020;2023-10-13T02:50:33;98850.94;;;12.47;100.00
28008;BME280;15333;50.010;20.020;2023-10-13T02:53:34;98841.56;;;12.41;100.00
28008;BME280;15333;50.010;20.020;2023-10-13T02:56:35;98845.72;;;12.34;100.00
28008;BME280;15333;50.010;20.020;2023-10-13T02:59:37;98848.53;;;12.33;100.00
28008;BME280;15333;50.010;20.020;2023-10-13T03:02:41;98856.97;;;12.28;100.00
28008;BME280;15333;50.010;20.020;2023-10-13T03:05:58;98860.28;;;12.21;100.00
28008;BME280;15333;50.010;20.020;2023-10-13T03:09:06;98866.16;;;12.14;100.00
28008;BME280;15333;50.010;20.020;2023-10-13T03:12:20;98860.78;;;12.14;100.00
28008;BME280;15333;50.010;20.020;2023-10-13T03:15:22;98852.47;;;12.18;100.00
28008;BME280;15333;50.010;20.020;2023-10-13T03:18:30;98852.69;;;12.26;100.00
28008;BME280;15333;50.010;20.020;2023-10-13T03:21:37;98854.19;;;12.19;100.00
28008;BME280;15333;50.010;20.020;2023-10-13T03:24:39;98854.41;;;12.27;100.00
28008;BME280;15333;50.010;20.020;2023-10-13T03:27:46;98851.69;;;12.38;100.00
28008;BME280;15333;50.010;20.020;2023-10-13T03:30:52;98852.88;;;12.45;100.00
28008;BME280;15333;50.010;20.020;2023-10-13T03:33:53;98851.03;;;12.57;100.00
28008;BME280;15333;50.010;20.020;2023-10-13T03:37:01;98852.09;;;12.65;100.00
28008;BME280;15333;50.010;20.020;2023-10-13T03:40:12;98859.03;;;12.68;100.00
28008;BME280;15333;50.010;20.020;2023-10-13T03:43:22;98855.50;;;12.78;100.00
28008;BME280;15333;50.010;20.020;2023-10-13T03:46:24;98863.94;;;12.94;100.00
28008;BME280;15333;50.010;20.020;2023-10-13T03:49:27;98871.16;;;12.94;100.00
28008;BME280;15333;50.010;20.020;2023-10-13T03:52:30;98873.97;;;12.92;100.00
28008;BME280;15333;50.010;20.020;2023-10-13T03:55:36;98872.00;;;12.94;100.00
28008;BME280;15333;50.010;20.020;2023-10-13T03:58:41;98873.25;;;12.90;100.00
28008;BME280;15333;50.010;20.020;2023-10-13T04:01:47;98870.00;;;12.76;100.00
28008;BME280;15333;50.010;20.020;2023-10-13T04:05:03;98880.78;;;12.65;100.00
28008;BME280;15333;50.010;20.020;2023-10-13T04:08:10;98875.06;;;12.58;100.00
28008;BME280;15333;50.010;20.020;2023-10-13T04:11:26;98878.28;;;12.41;100.00
28008;BME280;15333;50.010;20.020;2023-10-13T04:14:59;98883.47;;;12.22;100.00
28008;BME280;15333;50.010;20.020;2023-10-13T04:18:05;98887.97;;;12.21;100.00
28008;BME280;15333;50.010;20.020;2023-10-13T04:21:19;98881.47;;;12.24;100.00
28008;BME280;15333;50.010;20.020;2023-10-13T04:24:40;98876.72;;;12.27;100.00
28008;BME280;15333;50.010;20.020;2023-10-13T04:27:59;98873.44;;;12.24;100.00
28008;BME280;15333;50.010;20.020;2023-10-13T04:31:16;98868.06;;;12.24;100.00
28008;BME280;15333;50.010;20.020;2023-10-13T04:34:36;98875.97;;;12.36;100.00
28008;BME280;15333;50.010;20.020;2023-10-13T04:37:39;98875.84;;;12.38;100.00
28008;BME280;15333;50.010;20.020;2023-10-13T04:40:51;98878.53;;;12.38;100.00
28008;BME280;15333;50.010;20.020;2023-10-13T04:44:02;98884.63;;;12.40;100.00
28008;BME280;15333;50.010;20.020;2023-10-13T04:47:23;98880.97;;;12.41;100.00
28008;BME280;15333;50.010;20.020;2023-10-13T04:50:24;98887.09;;;12.43;100.00
28008;BME280;15333;50.010;20.020;2023-10-13T04:53:35;98882.66;;;12.53;100.00
28008;BME280;15333;50.010;20.020;2023-10-13T04:56:56;98886.75;;;12.68;100.00
28008;BME280;15333;50.010;20.020;2023-10-13T05:00:15;98900.34;;;12.87;100.00
28008;BME280;15333;50.010;20.020;2023-10-13T05:03:22;98893.50;;;12.94;100.00
28008;BME280;15333;50.010;20.020;2023-10-13T05:06:53;98897.44;;;12.90;100.00
28008;BME280;15333;50.010;20.020;2023-10-13T05:10:13;98891.06;;;12.91;100.00
28008;BME280;15333;50.010;20.020;2023-10-13T05:13:32;98890.78;;;13.06;100.00
28008;BME280;15333;50.010;20.020;2023-10-13T05:16:53;98903.94;;;13.09;100.00
28008;BME280;15333;50.010;20.020;2023-10-13T05:20:13;98900.75;;;13.15;100.00
28008;BME280;15333;50.010;20.020;2023-10-13T05:23:32;98900.50;;;13.18;100.00
28008;BME280;15333;50.010;20.020;2023-10-13T05:26:53;98916.97;;;13.24;100.00
28008;BME280;15333;50.010;20.020;2023-10-13T05:30:13;98924.16;;;13.35;100.00
28008;BME280;15333;50.010;20.020;2023-10-13T05:33:32;98919.09;;;13.42;100.00
28008;BME280;15333;50.010;20.020;2023-10-13T05:36:51;98922.81;;;13.50;100.00
28008;BME280;15333;50.010;20.020;2023-10-13T05:40:11;98934.38;;;13.41;100.00
28008;BME280;15333;50.010;20.020;2023-10-13T05:43:30;98936.09;;;13.42;100.00
28008;BME280;15333;50.010;20.020;2023-10-13T05:46:49;98937.09;;;13.30;100.00
28008;BME280;15333;50.010;20.020;2023-10-13T05:50:01;98937.09;;;13.30;100.00
28008;BME280;15333;50.010;20.020;2023-10-13T05:53:40;98934.25;;;13.43;100.00
28008;BME280;15333;50.010;20.020;2023-10-13T05:56:59;98934.19;;;13.54;100.00
28008;BME280;15333;50.010;20.020;2023-10-13T06:00:18;98941.19;;;13.45;100.00
28008;BME280;15333;50.010;20.020;2023-10-13T06:03:39;98935.88;;;13.34;100.00
28008;BME280;15333;50.010;20.020;2023-10-13T06:06:58;98943.72;;;13.26;100.00
28008;BME280;15333;50.010;20.020;2023-10-13T06:10:35;98939.56;;;13.22;100.00
28008;BME280;15333;50.010;20.020;2023-10-13T06:13:54;98938.59;;;13.23;100.00
28008;BME280;15333;50.010;20.020;2023-10-13T06:17:14;98943.97;;;13.23;100.00
28008;BME280;15333;50.010;20.020;2023-10-13T06:20:38;98939.44;;;13.23;100.00
28008;BME280;15333;50.010;20.020;2023-10-13T06:23:58;98943.84;;;13.24;100.00
28008;BME280;15333;50.010;20.020;2023-10-13T06:27:17;98949.84;;;13.28;100.00
28008;BME280;15333;50.010;20.020;2023-10-13T06:30:37;98957.16;;;13.26;100.00
28008;BME280;15333;50.010;20.020;2023-10-13T06:33:38;98963.28;;;13.28;100.00
28008;BME280;15333;50.010;20.020;2023-10-13T06:36:45;98962.28;;;13.29;100.00
28008;BME280;15333;50.010;20.020;2023-10-13T06:39:54;98961.78;;;13.35;100.00
28008;BME280;15333;50.010;20.020;2023-10-13T06:43:00;98959.78;;;13.37;100.00
28008;BME280;15333;50.010;20.020;2023-10-13T06:46:14;98958.25;;;13.35;100.00
28008;BME280;15333;50.010;20.020;2023-10-13T06:49:17;98956.97;;;13.39;100.00
28008;BME280;15333;50.010;20.020;2023-10-13T06:52:18;98957.31;;;13.45;100.00
28008;BME280;15333;50.010;20.020;2023-10-13T06:55:20;98958.50;;;13.52;100.00
28008;BME280;15333;50.010;20.020;2023-10-13T06:58:35;98955.69;;;13.54;100.00
28008;BME280;15333;50.010;20.020;2023-10-13T07:01:36;98960.41;;;13.61;100.00
28008;BME280;15333;50.010;20.020;2023-10-13T07:04:40;98960.09;;;13.76;100.00
28008;BME280;15333;50.010;20.020;2023-10-13T07:07:41;98958.78;;;13.91;100.00
28008;BME280;15333;50.010;20.020;2023-10-13T07:10:51;98955.09;;;13.92;100.00
28008;BME280;15333;50.010;20.020;2023-10-13T07:13:52;98956.97;;;14.01;100.00
28008;BME280;15333;50.010;20.020;2023-10-13T07:17:05;98958.09;;;14.29;100.00
28008;BME280;15333;50.010;20.020;2023-10-13T07:20:07;98964.63;;;14.26;100.00
28008;BME280;15333;50.010;20.020;2023-10-13T07:23:24;98968.94;;;14.38;100.00
28008;BME280;15333;50.010;20.020;2023-10-13T07:26:25;98960.88;;;14.38;100.00
28008;BME280;15333;50.010;20.020;2023-10-13T07:29:27;98964.97;;;14.42;100.00
28008;BME280;15333;50.010;20.020;2023-10-13T07:32:28;98965.88;;;14.53;100.00
28008;BME280;15333;50.010;20.020;2023-10-13T07:35:29;98967.03;;;14.60;100.00
28008;BME280;15333;50.010;20.020;2023-10-13T07:38:32;98973.84;;;14.64;100.00
28008;BME280;15333;50.010;20.020;2023-10-13T07:41:38;98976.03;;;14.70;100.00
28008;BME280;15333;50.010;20.020;2023-10-13T07:44:42;98970.22;;;14.74;100.00
28008;BME280;15333;50.010;20.020;2023-10-13T07:47:56;98968.97;;;14.88;100.00
28008;BME280;15333;50.010;20.020;2023-10-13T07:51:09;98976.25;;;15.16;100.00
28008;BME280;15333;50.010;20.020;2023-10-13T07:54:19;98970.84;;;15.36;100.00
28008;BME280;15333;50.010;20.020;2023-10-13T07:57:23;98973.44;;;15.76;100.00
28008;BME280;15333;50.010;20.020;2023-10-13T08:00:29;98961.75;;;15.94;100.00
28008;BME280;15333;50.010;20.020;2023-10-13T08:03:47;98957.63;;;16.37;98.84
28008;BME280;15333;50.010;20.020;2023-10-13T08:06:50;98951.84;;;16.59;94.02
28008;BME280;15333;50.010;20.020;2023-10-13T08:09:51;98941.66;;;16.80;91.18
28008;BME280;15333;50.010;20.020;2023-10-13T08:12:52;98934.75;;;17.31;88.52
28008;BME280;15333;50.010;20.020;2023-10-13T08:15:55;98944.88;;;17.29;87.10
28008;BME280;15333;50.010;20.020;2023-10-13T08:19:01;98939.25;;;17.22;86.78
28008;BME280;15333;50.010;20.020;2023-10-13T08:22:02;98932.06;;;17.31;87.24
28008;BME280;15333;50.010;20.020;2023-10-13T08:25:18;98930.28;;;17.40;86.97
28008;BME280;15333;50.010;20.020;2023-10-13T08:28:34;98927.88;;;17.98;83.97
28008;BME280;15333;50.010;20.020;2023-10-13T08:31:54;98931.28;;;18.00;82.14
28008;BME280;15333;50.010;20.020;2023-10-13T08:35:04;98928.78;;;18.32;80.78
28008;BME280;15333;50.010;20.020;2023-10-13T08:38:05;98925.75;;;18.44;77.87
28008;BME280;15333;50.010;20.020;2023-10-13T08:41:14;98925.47;;;18.89;77.07
28008;BME280;15333;50.010;20.020;2023-10-13T08:44:18;98929.06;;;19.05;76.32
28008;BME280;15333;50.010;20.020;2023-10-13T08:47:34;98927.56;;;19.19;75.96
28008;BME280;15333;50.010;20.020;2023-10-13T08:50:44;98926.72;;;19.35;100.00
28008;BME280;15333;50.010;20.020;2023-10-13T08:53:51;98920.28;;;19.36;100.00
28008;BME280;15333;50.010;20.020;2023-10-13T08:57:02;98927.00;;;18.99;100.00
28008;BME280;15333;50.010;20.020;2023-10-13T09:00:33;98929.50;;;18.85;100.00
28008;BME280;15333;50.010;20.020;2023-10-13T09:04:02;98928.97;;;18.73;100.00
28008;BME280;15333;50.010;20.020;2023-10-13T09:07:19;98933.38;;;18.74;100.00
28008;BME280;15333;50.010;20.020;2023-10-13T09:10:25;98925.53;;;18.63;100.00
28008;BME280;15333;50.010;20.020;2023-10-13T09:13:45;98928.47;;;18.77;100.00
28008;BME280;15333;50.010;20.020;2023-10-13T09:16:46;98927.63;;;18.77;100.00
28008;BME280;15333;50.010;20.020;2023-10-13T09:19:48;98927.31;;;18.80;100.00
28008;BME280;15333;50.010;20.020;2023-10-13T09:22:51;98924.25;;;18.83;100.00
28008;BME280;15333;50.010;20.020;2023-10-13T09:26:12;98933.78;;;18.87;100.00
28008;BME280;15333;50.010;20.020;2023-10-13T09:29:24;98927.31;;;18.80;100.00
28008;BME280;15333;50.010;20.020;2023-10-13T09:32:25;98927.63;;;18.77;100.00
28008;BME280;15333;50.010;20.020;2023-10-13T09:35:26;98918.81;;;18.75;100.00
28008;BME280;15333;50.010;20.020;2023-10-13T09:38:28;98909.34;;;18.87;100.00
28008;BME280;15333;50.010;20.020;2023-10-13T09:41:29;98909.69;;;18.92;100.00
28008;BME280;15333;50.010;20.020;2023-10-13T09:44:33;98905.50;;;19.06;100.00
28008;BME280;15333;50.010;20.020;2023-10-13T09:47:35;98906.16;;;19.00;100.00
28008;BME280;15333;50.010;20.020;2023-10-13T09:50:43;98909.22;;;18.97;100.00
28008;BME280;15333;50.010;20.020;2023-10-13T09:53:57;98915.16;;;19.08;100.00
28008;BME280;15333;50.010;20.020;2023-10-13T09:57:13;98895.00;;;19.19;100.00
28008;BME280;15333;50.010;20.020;2023-10-13T10:00:18;98899.09;;;19.31;100.00
28008;BME280;15333;50.010;20.020;2023-10-13T10:03:28;98898.28;;;19.55;100.00
28008;BME280;15333;50.010;20.020;2023-10-13T10:06:36;98907.59;;;19.69;100.00
28008;BME280;15333;50.010;20.020;2023-10-13T10:09:41;98896.22;;;19.73;100.00
28008;BME280;15333;50.010;20.020;2023-10-13T10:12:48;98896.56;;;19.86;100.00
28008;BME280;15333;50.010;20.020;2023-10-13T10:15:51;98892.44;;;19.99;100.00
28008;BME280;15333;50.010;20.020;2023-10-13T10:19:01;98880.13;;;20.27;100.00
28008;BME280;15333;50.010;20.020;2023-10-13T10:22:03;98880.81;;;20.37;100.00
28008;BME280;15333;50.010;20.020;2023-10-13T10:25:17;98876.72;;;20.41;99.68
28008;BME280;15333;50.010;20.020;2023-10-13T10:28:35;98869.00;;;19.98;100.00
28008;BME280;15333;50.010;20.020;2023-10-13T10:31:36;98867.59;;;20.18;99.61
28008;BME280;15333;50.010;20.020;2023-10-13T10:34:42;98866.56;;;20.35;99.72
28008;BME280;15333;50.010;20.020;2023-10-13T10:37:42;98859.94;;;20.29;98.53
28008;BME280;15333;50.010;20.020;2023-10-13T10:40:54;98859.38;;;20.42;96.99
28008;BME280;15333;50.010;20.020;2023-10-13T10:43:58;98861.78;;;20.29;97.88
28008;BME280;15333;50.010;20.020;2023-10-13T10:50:10;98857.22;;;20.29;100.00
28008;BME280;15333;50.010;20.020;2023-10-13T10:53:21;98855.97;;;20.48;96.23
28008;BME280;15333;50.010;20.020;2023-10-13T10:56:26;98858.56;;;20.73;94.72
28008;BME280;15333;50.010;20.020;2023-10-13T10:59:38;98837.53;;;20.89;93.62
28008;BME280;15333;50.010;20.020;2023-10-13T11:02:39;98839.34;;;20.97;94.71
28008;BME280;15333;50.010;20.020;2023-10-13T11:05:46;98840.56;;;20.94;92.21
28008;BME280;15333;50.010;20.020;2023-10-13T11:08:47;98834.38;;;20.78;93.73
28008;BME280;15333;50.010;20.020;2023-10-13T11:11:54;98824.84;;;20.82;94.67
28008;BME280;15333;50.010;20.020;2023-10-13T11:15:05;98834.03;;;20.81;92.05
28008;BME280;15333;50.010;20.020;2023-10-13T11:18:36;98835.75;;;20.82;93.24
28008;BME280;15333;50.010;20.020;2023-10-13T11:21:41;98827.88;;;20.87;92.04
28008;BME280;15333;50.010;20.020;2023-10-13T11:24:42;98826.84;;;20.88;92.79
28008;BME280;15333;50.010;20.020;2023-10-13T11:27:43;98821.69;;;20.93;93.00
28008;BME280;15333;50.010;20.020;2023-10-13T11:30:50;98817.56;;;20.97;89.75
28008;BME280;15333;50.010;20.020;2023-10-13T11:33:51;98819.28;;;20.98;88.48
28008;BME280;15333;50.010;20.020;2023-10-13T11:36:56;98810.16;;;20.91;89.48
28008;BME280;15333;50.010;20.020;2023-10-13T11:39:59;98803.44;;;21.01;86.30
28008;BME280;15333;50.010;20.020;2023-10-13T11:43:00;98810.59;;;21.25;87.62
28008;BME280;15333;50.010;20.020;2023-10-13T11:46:01;98814.72;;;21.21;86.86
28008;BME280;15333;50.010;20.020;2023-10-13T11:49:11;98813.44;;;21.09;88.46
28008;BME280;15333;50.010;20.020;2023-10-13T11:52:27;98814.44;;;21.08;89.27
28008;BME280;15333;50.010;20.020;2023-10-13T11:55:31;98808.59;;;21.19;87.14
28008;BME280;15333;50.010;20.020;2023-10-13T11:58:32;98811.69;;;21.16;83.07
28008;BME280;15333;50.010;20.020;2023-10-13T12:01:35;98808.41;;;21.21;82.63
28008;BME280;15333;50.010;20.020;2023-10-13T12:04:54;98800.00;;;21.30;82.94
28008;BME280;15333;50.010;20.020;2023-10-13T12:07:55;98799.69;;;21.25;81.63
28008;BME280;15333;50.010;20.020;2023-10-13T12:11:04;98807.09;;;21.17;83.69
28008;BME280;15333;50.010;20.020;2023-10-13T12:14:25;98797.66;;;21.27;82.35
28008;BME280;15333;50.010;20.020;2023-10-13T12:17:30;98790.88;;;21.23;81.83
28008;BME280;15333;50.010;20.020;2023-10-13T12:20:37;98791.94;;;21.14;82.85
28008;BME280;15333;50.010;20.020;2023-10-13T12:23:37;98788.19;;;21.15;84.27
28008;BME280;15333;50.010;20.020;2023-10-13T12:26:41;98785.78;;;21.20;85.46
28008;BME280;15333;50.010;20.020;2023-10-13T12:29:43;98786.75;;;21.27;84.83
28008;BME280;15333;50.010;20.020;2023-10-13T12:32:47;98790.72;;;21.39;85.31
28008;BME280;15333;50.010;20.020;2023-10-13T12:36:00;98790.22;;;21.59;85.36
28008;BME280;15333;50.010;20.020;2023-10-13T12:39:11;98782.41;;;21.70;84.39
28008;BME280;15333;50.010;20.020;2023-10-13T12:42:30;98787.59;;;21.80;82.49
28008;BME280;15333;50.010;20.020;2023-10-13T12:45:51;98777.97;;;21.55;84.60
28008;BME280;15333;50.010;20.020;2023-10-13T12:49:10;98777.78;;;21.41;84.37
28008;BME280;15333;50.010;20.020;2023-10-13T12:52:37;98773.88;;;21.21;85.38
28008;BME280;15333;50.010;20.020;2023-10-13T12:55:40;98772.72;;;21.16;86.46
28008;BME280;15333;50.010;20.020;2023-10-13T12:58:42;98767.03;;;21.25;87.51
28008;BME280;15333;50.010;20.020;2023-10-13T13:01:53;98768.16;;;21.16;88.55
28008;BME280;15333;50.010;20.020;2023-10-13T13:04:55;98771.63;;;21.02;89.47
28008;BME280;15333;50.010;20.020;2023-10-13T13:08:12;98767.97;;;20.95;90.25
28008;BME280;15333;50.010;20.020;2023-10-13T13:11:20;98768.25;;;21.00;91.29
28008;BME280;15333;50.010;20.020;2023-10-13T13:14:21;98767.28;;;21.16;89.66
28008;BME280;15333;50.010;20.020;2023-10-13T13:17:22;98757.91;;;21.18;88.59
28008;BME280;15333;50.010;20.020;2023-10-13T13:20:23;98757.75;;;21.34;89.41
28008;BME280;15333;50.010;20.020;2023-10-13T13:23:28;98747.06;;;21.47;89.05
28008;BME280;15333;50.010;20.020;2023-10-13T13:26:31;98745.63;;;21.22;90.56
28008;BME280;15333;50.010;20.020;2023-10-13T13:29:32;98751.66;;;21.32;90.33
28008;BME280;15333;50.010;20.020;2023-10-13T13:32:33;98757.66;;;21.28;90.63
28008;BME280;15333;50.010;20.020;2023-10-13T13:35:34;98752.03;;;21.29;90.00
28008;BME280;15333;50.010;20.020;2023-10-13T13:38:35;98758.31;;;21.30;90.33
28008;BME280;15333;50.010;20.020;2023-10-13T13:41:36;98743.47;;;21.32;91.17
28008;BME280;15333;50.010;20.020;2023-10-13T13:44:38;98730.25;;;21.29;92.95
28008;BME280;15333;50.010;20.020;2023-10-13T13:47:39;98735.94;;;21.20;92.79
28008;BME280;15333;50.010;20.020;2023-10-13T13:50:40;98724.88;;;21.21;91.43
28008;BME280;15333;50.010;20.020;2023-10-13T13:53:42;98728.66;;;21.12;93.97
28008;BME280;15333;50.010;20.020;2023-10-13T13:56:46;98719.38;;;21.29;91.36
28008;BME280;15333;50.010;20.020;2023-10-13T13:59:47;98711.56;;;21.41;88.85
28008;BME280;15333;50.010;20.020;2023-10-13T14:02:50;98716.47;;;21.31;90.30
28008;BME280;15333;50.010;20.020;2023-10-13T14:05:51;98711.88;;;21.31;90.93
28008;BME280;15333;50.010;20.020;2023-10-13T14:08:53;98713.16;;;21.35;91.16
28008;BME280;15333;50.010;20.020;2023-10-13T14:11:59;98710.09;;;21.38;90.33
28008;BME280;15333;50.010;20.020;2023-10-13T14:15:18;98709.41;;;21.36;91.61
28008;BME280;15333;50.010;20.020;2023-10-13T14:18:24;98708.56;;;21.21;90.95
28008;BME280;15333;50.010;20.020;2023-10-13T14:21:30;98704.53;;;21.17;91.74
28008;BME280;15333;50.010;20.020;2023-10-13T14:24:34;98709.25;;;21.15;90.84
28008;BME280;15333;50.010;20.020;2023-10-13T14:27:36;98710.09;;;21.16;92.14
28008;BME280;15333;50.010;20.020;2023-10-13T14:30:37;98714.84;;;20.99;93.07
28008;BME280;15333;50.010;20.020;2023-10-13T14:33:37;98704.03;;;20.91;93.20
28008;BME280;15333;50.010;20.020;2023-10-13T14:36:40;98710.88;;;20.87;93.85
28008;BME280;15333;50.010;20.020;2023-10-13T14:39:41;98703.81;;;20.78;95.75
28008;BME280;15333;50.010;20.020;2023-10-13T14:42:42;98709.25;;;20.78;97.06
28008;BME280;15333;50.010;20.020;2023-10-13T14:45:43;98704.88;;;20.91;96.70
28008;BME280;15333;50.010;20.020;2023-10-13T14:48:44;98695.78;;;20.99;97.67
28008;BME280;15333;50.010;20.020;2023-10-13T14:51:45;98696.25;;;20.88;98.78
28008;BME280;15333;50.010;20.020;2023-10-13T14:54:46;98691.78;;;20.72;99.41
28008;BME280;15333;50.010;20.020;2023-10-13T14:57:49;98687.25;;;20.64;100.00
28008;BME280;15333;50.010;20.020;2023-10-13T15:00:50;98690.88;;;20.57;100.00
28008;BME280;15333;50.010;20.020;2023-10-13T15:03:53;98695.97;;;20.60;100.00
28008;BME280;15333;50.010;20.020;2023-10-13T15:06:59;98699.34;;;20.62;100.00
28008;BME280;15333;50.010;20.020;2023-10-13T15:10:02;98695.38;;;20.50;100.00
28008;BME280;15333;50.010;20.020;2023-10-13T15:13:03;98697.56;;;20.46;100.00
28008;BME280;15333;50.010;20.020;2023-10-13T15:16:19;98693.41;;;20.36;100.00
28008;BME280;15333;50.010;20.020;2023-10-13T15:19:20;98692.88;;;20.32;100.00
28008;BME280;15333;50.010;20.020;2023-10-13T15:22:21;98700.16;;;20.17;100.00
28008;BME280;15333;50.010;20.020;2023-10-13T15:25:28;98690.34;;;20.08;100.00
28008;BME280;15333;50.010;20.020;2023-10-13T15:28:30;98691.78;;;19.96;100.00
28008;BME280;15333;50.010;20.020;2023-10-13T15:31:31;98692.13;;;19.92;100.00
28008;BME280;15333;50.010;20.020;2023-10-13T15:34:32;98686.03;;;19.82;100.00
28008;BME280;15333;50.010;20.020;2023-10-13T15:37:33;98678.97;;;19.73;100.00
28008;BME280;15333;50.010;20.020;2023-10-13T15:40:43;98675.97;;;19.60;100.00
28008;BME280;15333;50.010;20.020;2023-10-13T15:43:46;98677.34;;;19.48;100.00
28008;BME280;15333;50.010;20.020;2023-10-13T15:46:54;98670.91;;;19.41;100.00
28008;BME280;15333;50.010;20.020;2023-10-13T15:49:56;98676.88;;;19.36;100.00
28008;BME280;15333;50.010;20.020;2023-10-13T15:52:56;98677.72;;;19.29;100.00
28008;BME280;15333;50.010;20.020;2023-10-13T15:55:57;98674.72;;;19.24;100.00
28008;BME280;15333;50.010;20.020;2023-10-13T15:58:59;98668.28;;;19.16;100.00
28008;BME280;15333;50.010;20.020;2023-10-13T16:02:01;98664.56;;;19.09;100.00
28008;BME280;15333;50.010;20.020;2023-10-13T16:05:07;98660.47;;;19.05;100.00
28008;BME280;15333;50.010;20.020;2023-10-13T16:08:08;98663.88;;;19.07;100.00
28008;BME280;15333;50.010;20.020;2023-10-13T16:11:13;98660.50;;;18.97;100.00
28008;BME280;15333;50.010;20.020;2023-10-13T16:14:14;98651.72;;;18.87;100.00